sensor_id;sensor_type;location;lat;lon;timestamp;temperature;humidity
774;DHT22;370;48.810;9.150;2022-07-21T00:00:52;20.20;60.40
774;DHT22;370;48.810;9.150;2022-07-21T00:03:20;20.20;61.10
774;DHT22;370;48.810;9.150;2022-07-21T00:05:47;20.20;60.90
774;DHT22;370;48.810;9.150;2022-07-21T00:08:13;20.10;62.10
774;DHT22;370;48.810;9.150;2022-07-21T00:10:40;20.10;62.10
774;DHT22;370;48.810;9.150;2022-07-21T00:13:07;20.00;62.50
774;DHT22;370;48.810;9.150;2022-07-21T00:15:34;20.00;62.60
774;DHT22;370;48.810;9.150;2022-07-21T00:18:01;20.00;62.00
774;DHT22;370;48.810;9.150;2022-07-21T00:20:29;19.80;64.10
774;DHT22;370;48.810;9.150;2022-07-21T00:22:57;19.80;64.40
774;DHT22;370;48.810;9.150;2022-07-21T00:25:23;19.80;64.40
774;DHT22;370;48.810;9.150;2022-07-21T00:27:50;19.80;64.90
774;DHT22;370;48.810;9.150;2022-07-21T00:30:17;19.80;64.40
774;DHT22;370;48.810;9.150;2022-07-21T00:32:44;19.80;64.30
774;DHT22;370;48.810;9.150;2022-07-21T00:35:11;19.80;63.70
774;DHT22;370;48.810;9.150;2022-07-21T00:37:40;19.70;66.20
774;DHT22;370;48.810;9.150;2022-07-21T00:40:09;19.80;65.80
774;DHT22;370;48.810;9.150;2022-07-21T00:42:36;19.80;66.50
774;DHT22;370;48.810;9.150;2022-07-21T00:45:05;19.90;66.50
774;DHT22;370;48.810;9.150;2022-07-21T00:47:32;20.10;66.30
774;DHT22;370;48.810;9.150;2022-07-21T00:50:00;20.10;66.10
774;DHT22;370;48.810;9.150;2022-07-21T00:52:27;20.30;65.80
774;DHT22;370;48.810;9.150;2022-07-21T00:54:55;20.30;64.40
774;DHT22;370;48.810;9.150;2022-07-21T00:57:22;20.30;64.30
774;DHT22;370;48.810;9.150;2022-07-21T00:59:49;20.40;63.90
774;DHT22;370;48.810;9.150;2022-07-21T01:02:16;20.50;61.50
774;DHT22;370;48.810;9.150;2022-07-21T01:04:43;20.50;59.90
774;DHT22;370;48.810;9.150;2022-07-21T01:07:10;20.50;59.90
774;DHT22;370;48.810;9.150;2022-07-21T01:09:37;20.50;59.90
774;DHT22;370;48.810;9.150;2022-07-21T01:12:06;20.50;59.90
774;DHT22;370;48.810;9.150;2022-07-21T01:14:33;20.40;59.80
774;DHT22;370;48.810;9.150;2022-07-21T01:17:01;20.50;59.90
774;DHT22;370;48.810;9.150;2022-07-21T01:19:27;20.50;57.70
774;DHT22;370;48.810;9.150;2022-07-21T01:21:56;20.50;58.30
774;DHT22;370;48.810;9.150;2022-07-21T01:24:23;20.50;57.10
774;DHT22;370;48.810;9.150;2022-07-21T01:26:51;20.60;57.60
774;DHT22;370;48.810;9.150;2022-07-21T01:29:18;20.60;56.90
774;DHT22;370;48.810;9.150;2022-07-21T01:31:47;20.60;56.70
774;DHT22;370;48.810;9.150;2022-07-21T01:34:15;20.60;56.80
774;DHT22;370;48.810;9.150;2022-07-21T01:36:43;20.70;56.20
774;DHT22;370;48.810;9.150;2022-07-21T01:39:11;20.70;55.60
774;DHT22;370;48.810;9.150;2022-07-21T01:41:56;20.70;54.30
774;DHT22;370;48.810;9.150;2022-07-21T01:44:23;20.70;53.70
774;DHT22;370;48.810;9.150;2022-07-21T01:46:51;20.70;53.70
774;DHT22;370;48.810;9.150;2022-07-21T01:49:19;20.70;52.50
774;DHT22;370;48.810;9.150;2022-07-21T01:51:47;20.70;52.50
774;DHT22;370;48.810;9.150;2022-07-21T01:54:15;20.70;51.60
774;DHT22;370;48.810;9.150;2022-07-21T01:56:42;20.70;50.20
774;DHT22;370;48.810;9.150;2022-07-21T01:59:09;20.60;52.20
774;DHT22;370;48.810;9.150;2022-07-21T02:01:36;20.70;53.20
774;DHT22;370;48.810;9.150;2022-07-21T02:04:04;20.70;53.40
774;DHT22;370;48.810;9.150;2022-07-21T02:06:31;20.60;54.90
774;DHT22;370;48.810;9.150;2022-07-21T02:08:58;20.50;54.30
774;DHT22;370;48.810;9.150;2022-07-21T02:11:27;20.20;59.60
774;DHT22;370;48.810;9.150;2022-07-21T02:13:54;20.00;62.50
774;DHT22;370;48.810;9.150;2022-07-21T02:16:21;20.00;63.40
774;DHT22;370;48.810;9.150;2022-07-21T02:18:48;20.00;65.20
774;DHT22;370;48.810;9.150;2022-07-21T02:21:15;20.00;67.10
774;DHT22;370;48.810;9.150;2022-07-21T02:23:42;20.10;67.00
774;DHT22;370;48.810;9.150;2022-07-21T02:26:09;20.20;68.50
774;DHT22;370;48.810;9.150;2022-07-21T02:28:37;20.20;67.70
774;DHT22;370;48.810;9.150;2022-07-21T02:31:05;20.20;69.10
774;DHT22;370;48.810;9.150;2022-07-21T02:33:32;20.20;66.70
774;DHT22;370;48.810;9.150;2022-07-21T02:35:58;20.00;66.10
774;DHT22;370;48.810;9.150;2022-07-21T02:38:25;20.00;67.90
774;DHT22;370;48.810;9.150;2022-07-21T02:40:52;19.90;69.00
774;DHT22;370;48.810;9.150;2022-07-21T02:43:19;19.90;69.80
774;DHT22;370;48.810;9.150;2022-07-21T02:45:47;19.80;69.60
774;DHT22;370;48.810;9.150;2022-07-21T02:48:13;19.70;70.90
774;DHT22;370;48.810;9.150;2022-07-21T02:50:43;19.70;71.30
774;DHT22;370;48.810;9.150;2022-07-21T02:53:12;19.70;72.00
774;DHT22;370;48.810;9.150;2022-07-21T02:55:40;19.80;71.50
774;DHT22;370;48.810;9.150;2022-07-21T02:58:09;19.80;71.00
774;DHT22;370;48.810;9.150;2022-07-21T03:00:38;19.80;69.60
774;DHT22;370;48.810;9.150;2022-07-21T03:03:07;19.70;69.50
774;DHT22;370;48.810;9.150;2022-07-21T03:05:35;19.70;71.00
774;DHT22;370;48.810;9.150;2022-07-21T03:08:02;19.80;69.80
774;DHT22;370;48.810;9.150;2022-07-21T03:10:29;19.80;71.90
774;DHT22;370;48.810;9.150;2022-07-21T03:12:56;20.00;71.10
774;DHT22;370;48.810;9.150;2022-07-21T03:15:23;20.00;69.80
774;DHT22;370;48.810;9.150;2022-07-21T03:17:51;20.10;68.00
774;DHT22;370;48.810;9.150;2022-07-21T03:20:19;20.10;66.10
774;DHT22;370;48.810;9.150;2022-07-21T03:22:46;20.20;65.30
774;DHT22;370;48.810;9.150;2022-07-21T03:25:12;20.20;63.00
774;DHT22;370;48.810;9.150;2022-07-21T03:27:39;20.20;61.00
774;DHT22;370;48.810;9.150;2022-07-21T03:30:08;20.30;59.70
774;DHT22;370;48.810;9.150;2022-07-21T03:32:35;20.40;59.90
774;DHT22;370;48.810;9.150;2022-07-21T03:35:04;20.50;58.70
774;DHT22;370;48.810;9.150;2022-07-21T03:37:32;20.50;57.50
774;DHT22;370;48.810;9.150;2022-07-21T03:39:59;20.60;56.30
774;DHT22;370;48.810;9.150;2022-07-21T03:42:26;20.70;55.10
774;DHT22;370;48.810;9.150;2022-07-21T03:44:52;20.70;54.70
774;DHT22;370;48.810;9.150;2022-07-21T03:47:19;20.70;53.40
774;DHT22;370;48.810;9.150;2022-07-21T03:49:46;20.80;53.30
774;DHT22;370;48.810;9.150;2022-07-21T03:52:12;20.80;53.50
774;DHT22;370;48.810;9.150;2022-07-21T03:54:41;20.80;54.30
774;DHT22;370;48.810;9.150;2022-07-21T03:57:07;20.80;54.10
774;DHT22;370;48.810;9.150;2022-07-21T03:59:34;20.90;54.60
774;DHT22;370;48.810;9.150;2022-07-21T04:02:01;20.90;53.90
774;DHT22;370;48.810;9.150;2022-07-21T04:04:28;20.90;53.00
774;DHT22;370;48.810;9.150;2022-07-21T04:06:54;20.90;52.60
774;DHT22;370;48.810;9.150;2022-07-21T04:09:21;20.90;51.90
774;DHT22;370;48.810;9.150;2022-07-21T04:11:50;20.90;51.00
774;DHT22;370;48.810;9.150;2022-07-21T04:14:16;21.00;50.40
774;DHT22;370;48.810;9.150;2022-07-21T04:16:43;21.00;50.40
774;DHT22;370;48.810;9.150;2022-07-21T04:19:10;21.10;49.70
774;DHT22;370;48.810;9.150;2022-07-21T04:21:36;21.00;48.60
774;DHT22;370;48.810;9.150;2022-07-21T04:24:03;21.00;48.10
774;DHT22;370;48.810;9.150;2022-07-21T04:26:30;21.00;49.30
774;DHT22;370;48.810;9.150;2022-07-21T04:28:58;20.90;48.90
774;DHT22;370;48.810;9.150;2022-07-21T04:31:25;20.90;48.60
774;DHT22;370;48.810;9.150;2022-07-21T04:33:52;20.80;50.20
774;DHT22;370;48.810;9.150;2022-07-21T04:36:18;20.80;50.60
774;DHT22;370;48.810;9.150;2022-07-21T04:38:45;20.80;51.30
774;DHT22;370;48.810;9.150;2022-07-21T04:41:13;20.80;50.60
774;DHT22;370;48.810;9.150;2022-07-21T04:43:40;20.90;50.30
774;DHT22;370;48.810;9.150;2022-07-21T04:46:08;20.90;50.30
774;DHT22;370;48.810;9.150;2022-07-21T04:48:35;20.80;50.20
774;DHT22;370;48.810;9.150;2022-07-21T04:51:02;20.60;53.30
774;DHT22;370;48.810;9.150;2022-07-21T04:53:29;20.50;54.90
774;DHT22;370;48.810;9.150;2022-07-21T04:55:55;20.50;56.20
774;DHT22;370;48.810;9.150;2022-07-21T04:58:22;20.50;56.30
774;DHT22;370;48.810;9.150;2022-07-21T05:00:49;20.60;57.30
774;DHT22;370;48.810;9.150;2022-07-21T05:03:17;20.70;57.00
774;DHT22;370;48.810;9.150;2022-07-21T05:05:44;20.80;55.20
774;DHT22;370;48.810;9.150;2022-07-21T05:08:11;20.80;56.30
774;DHT22;370;48.810;9.150;2022-07-21T05:10:37;20.60;56.40
774;DHT22;370;48.810;9.150;2022-07-21T05:13:04;20.60;56.80
774;DHT22;370;48.810;9.150;2022-07-21T05:15:31;20.60;53.70
774;DHT22;370;48.810;9.150;2022-07-21T05:17:57;20.60;57.40
774;DHT22;370;48.810;9.150;2022-07-21T05:20:25;20.70;55.80
774;DHT22;370;48.810;9.150;2022-07-21T05:22:52;20.70;56.40
774;DHT22;370;48.810;9.150;2022-07-21T05:25:19;20.70;55.10
774;DHT22;370;48.810;9.150;2022-07-21T05:27:46;20.80;53.40
774;DHT22;370;48.810;9.150;2022-07-21T05:30:13;20.80;52.70
774;DHT22;370;48.810;9.150;2022-07-21T05:32:40;20.80;50.30
774;DHT22;370;48.810;9.150;2022-07-21T05:35:07;21.00;50.40
774;DHT22;370;48.810;9.150;2022-07-21T05:37:38;21.20;50.60
774;DHT22;370;48.810;9.150;2022-07-21T05:40:06;20.90;45.70
774;DHT22;370;48.810;9.150;2022-07-21T05:42:33;21.00;47.00
774;DHT22;370;48.810;9.150;2022-07-21T05:45:01;21.20;45.50
774;DHT22;370;48.810;9.150;2022-07-21T05:47:29;21.20;45.50
774;DHT22;370;48.810;9.150;2022-07-21T05:49:57;21.20;45.30
774;DHT22;370;48.810;9.150;2022-07-21T05:52:24;21.30;46.80
774;DHT22;370;48.810;9.150;2022-07-21T05:54:52;21.50;45.60
774;DHT22;370;48.810;9.150;2022-07-21T05:57:19;21.60;43.00
774;DHT22;370;48.810;9.150;2022-07-21T05:59:46;21.80;40.90
774;DHT22;370;48.810;9.150;2022-07-21T06:02:13;21.80;37.30
774;DHT22;370;48.810;9.150;2022-07-21T06:04:39;21.90;38.50
774;DHT22;370;48.810;9.150;2022-07-21T06:07:06;22.20;35.50
774;DHT22;370;48.810;9.150;2022-07-21T06:09:33;22.40;32.30
774;DHT22;370;48.810;9.150;2022-07-21T06:12:01;22.40;30.80
774;DHT22;370;48.810;9.150;2022-07-21T06:14:28;22.70;27.80
774;DHT22;370;48.810;9.150;2022-07-21T06:16:55;23.00;28.60
774;DHT22;370;48.810;9.150;2022-07-21T06:19:22;23.20;25.00
774;DHT22;370;48.810;9.150;2022-07-21T06:21:49;23.40;25.10
774;DHT22;370;48.810;9.150;2022-07-21T06:24:15;23.20;22.10
774;DHT22;370;48.810;9.150;2022-07-21T06:26:45;23.20;22.80
774;DHT22;370;48.810;9.150;2022-07-21T06:29:13;23.50;21.70
774;DHT22;370;48.810;9.150;2022-07-21T06:31:40;23.60;18.40
774;DHT22;370;48.810;9.150;2022-07-21T06:34:07;23.20;19.80
774;DHT22;370;48.810;9.150;2022-07-21T06:36:33;23.50;21.30
774;DHT22;370;48.810;9.150;2022-07-21T06:39:00;23.80;20.30
774;DHT22;370;48.810;9.150;2022-07-21T06:41:27;24.10;19.00
774;DHT22;370;48.810;9.150;2022-07-21T06:43:54;24.10;17.70
774;DHT22;370;48.810;9.150;2022-07-21T06:46:22;24.10;16.00
774;DHT22;370;48.810;9.150;2022-07-21T06:48:49;24.20;16.10
774;DHT22;370;48.810;9.150;2022-07-21T06:51:16;23.90;14.50
774;DHT22;370;48.810;9.150;2022-07-21T06:53:43;23.60;15.20
774;DHT22;370;48.810;9.150;2022-07-21T06:56:10;23.80;17.80
774;DHT22;370;48.810;9.150;2022-07-21T06:58:36;23.90;17.00
774;DHT22;370;48.810;9.150;2022-07-21T07:01:03;24.20;14.70
774;DHT22;370;48.810;9.150;2022-07-21T07:03:31;24.60;14.10
774;DHT22;370;48.810;9.150;2022-07-21T07:05:59;24.70;15.00
774;DHT22;370;48.810;9.150;2022-07-21T07:08:26;24.50;17.40
774;DHT22;370;48.810;9.150;2022-07-21T07:10:52;24.20;16.20
774;DHT22;370;48.810;9.150;2022-07-21T07:13:19;24.40;14.80
774;DHT22;370;48.810;9.150;2022-07-21T07:15:46;24.70;13.90
774;DHT22;370;48.810;9.150;2022-07-21T07:18:12;25.00;13.10
774;DHT22;370;48.810;9.150;2022-07-21T07:20:41;25.20;10.80
774;DHT22;370;48.810;9.150;2022-07-21T07:23:07;25.30;10.40
774;DHT22;370;48.810;9.150;2022-07-21T07:25:34;25.50;9.00
774;DHT22;370;48.810;9.150;2022-07-21T07:28:01;25.50;8.00
774;DHT22;370;48.810;9.150;2022-07-21T07:30:27;25.70;7.10
774;DHT22;370;48.810;9.150;2022-07-21T07:32:54;25.60;6.40
774;DHT22;370;48.810;9.150;2022-07-21T07:35:21;25.70;7.40
774;DHT22;370;48.810;9.150;2022-07-21T07:37:49;26.10;4.70
774;DHT22;370;48.810;9.150;2022-07-21T07:40:18;26.00;5.10
774;DHT22;370;48.810;9.150;2022-07-21T07:42:45;25.20;6.20
774;DHT22;370;48.810;9.150;2022-07-21T07:45:13;25.00;7.00
774;DHT22;370;48.810;9.150;2022-07-21T07:47:40;25.40;6.30
774;DHT22;370;48.810;9.150;2022-07-21T07:50:10;26.00;5.40
774;DHT22;370;48.810;9.150;2022-07-21T07:52:37;26.50;2.20
774;DHT22;370;48.810;9.150;2022-07-21T07:55:07;26.90;1.00
774;DHT22;370;48.810;9.150;2022-07-21T07:57:36;26.90;1.00
774;DHT22;370;48.810;9.150;2022-07-21T08:00:05;27.00;1.00
774;DHT22;370;48.810;9.150;2022-07-21T08:02:33;27.00;1.00
774;DHT22;370;48.810;9.150;2022-07-21T08:05:00;27.10;1.00
774;DHT22;370;48.810;9.150;2022-07-21T08:07:26;27.40;1.00
774;DHT22;370;48.810;9.150;2022-07-21T08:09:53;27.60;1.00
774;DHT22;370;48.810;9.150;2022-07-21T08:12:21;27.50;1.00
774;DHT22;370;48.810;9.150;2022-07-21T08:14:48;27.70;1.00
774;DHT22;370;48.810;9.150;2022-07-21T08:17:15;28.30;1.00
774;DHT22;370;48.810;9.150;2022-07-21T08:19:42;28.40;1.00
774;DHT22;370;48.810;9.150;2022-07-21T08:22:09;28.00;1.00
774;DHT22;370;48.810;9.150;2022-07-21T08:24:36;27.90;1.00
774;DHT22;370;48.810;9.150;2022-07-21T08:27:03;27.60;1.00
774;DHT22;370;48.810;9.150;2022-07-21T08:29:31;27.50;1.00
774;DHT22;370;48.810;9.150;2022-07-21T08:31:58;27.40;1.00
774;DHT22;370;48.810;9.150;2022-07-21T08:34:25;27.20;1.00
774;DHT22;370;48.810;9.150;2022-07-21T08:36:51;27.10;1.00
774;DHT22;370;48.810;9.150;2022-07-21T08:39:18;27.10;1.00
774;DHT22;370;48.810;9.150;2022-07-21T08:41:45;27.40;1.00
774;DHT22;370;48.810;9.150;2022-07-21T08:44:12;27.90;1.00
774;DHT22;370;48.810;9.150;2022-07-21T08:46:41;27.80;1.00
774;DHT22;370;48.810;9.150;2022-07-21T08:49:09;27.80;1.00
774;DHT22;370;48.810;9.150;2022-07-21T08:51:37;27.70;1.00
774;DHT22;370;48.810;9.150;2022-07-21T08:54:04;28.50;1.00
774;DHT22;370;48.810;9.150;2022-07-21T08:56:31;29.30;1.00
774;DHT22;370;48.810;9.150;2022-07-21T08:58:58;30.20;1.00
774;DHT22;370;48.810;9.150;2022-07-21T09:01:24;31.00;1.00
774;DHT22;370;48.810;9.150;2022-07-21T09:03:53;31.90;1.00
774;DHT22;370;48.810;9.150;2022-07-21T09:06:20;32.90;1.00
774;DHT22;370;48.810;9.150;2022-07-21T09:08:49;33.30;1.00
774;DHT22;370;48.810;9.150;2022-07-21T09:11:19;33.30;1.00
774;DHT22;370;48.810;9.150;2022-07-21T09:13:47;34.10;1.00
774;DHT22;370;48.810;9.150;2022-07-21T09:16:36;34.80;1.00
774;DHT22;370;48.810;9.150;2022-07-21T09:19:05;35.30;1.00
774;DHT22;370;48.810;9.150;2022-07-21T09:21:32;35.70;1.00
774;DHT22;370;48.810;9.150;2022-07-21T09:24:17;35.60;1.00
774;DHT22;370;48.810;9.150;2022-07-21T09:27:05;35.50;1.00
774;DHT22;370;48.810;9.150;2022-07-21T09:29:36;35.30;1.00
774;DHT22;370;48.810;9.150;2022-07-21T09:32:16;35.00;1.00
774;DHT22;370;48.810;9.150;2022-07-21T09:34:46;35.60;1.00
774;DHT22;370;48.810;9.150;2022-07-21T09:37:14;36.70;1.00
774;DHT22;370;48.810;9.150;2022-07-21T09:39:45;37.40;1.00
774;DHT22;370;48.810;9.150;2022-07-21T09:42:20;38.30;1.00
774;DHT22;370;48.810;9.150;2022-07-21T09:44:49;39.10;1.00
774;DHT22;370;48.810;9.150;2022-07-21T09:47:18;40.00;1.00
774;DHT22;370;48.810;9.150;2022-07-21T09:49:47;40.40;1.00
774;DHT22;370;48.810;9.150;2022-07-21T09:52:25;39.50;1.00
774;DHT22;370;48.810;9.150;2022-07-21T09:54:53;38.90;1.00
774;DHT22;370;48.810;9.150;2022-07-21T09:57:21;39.10;1.00
774;DHT22;370;48.810;9.150;2022-07-21T09:59:49;38.90;1.00
774;DHT22;370;48.810;9.150;2022-07-21T10:02:18;38.80;1.00
774;DHT22;370;48.810;9.150;2022-07-21T10:04:55;37.50;1.00
774;DHT22;370;48.810;9.150;2022-07-21T10:07:23;38.00;1.00
774;DHT22;370;48.810;9.150;2022-07-21T10:09:50;38.30;1.00
774;DHT22;370;48.810;9.150;2022-07-21T10:12:17;37.60;1.00
774;DHT22;370;48.810;9.150;2022-07-21T10:14:45;36.70;1.00
774;DHT22;370;48.810;9.150;2022-07-21T10:17:14;36.10;1.00
774;DHT22;370;48.810;9.150;2022-07-21T10:20:03;35.20;1.00
774;DHT22;370;48.810;9.150;2022-07-21T10:22:40;34.30;1.00
774;DHT22;370;48.810;9.150;2022-07-21T10:25:10;34.10;1.00
774;DHT22;370;48.810;9.150;2022-07-21T10:27:37;35.90;1.00
774;DHT22;370;48.810;9.150;2022-07-21T10:30:05;38.20;1.00
774;DHT22;370;48.810;9.150;2022-07-21T10:32:34;40.70;1.00
774;DHT22;370;48.810;9.150;2022-07-21T10:35:26;42.60;1.00
774;DHT22;370;48.810;9.150;2022-07-21T10:37:54;44.80;1.00
774;DHT22;370;48.810;9.150;2022-07-21T10:40:38;46.90;1.00
774;DHT22;370;48.810;9.150;2022-07-21T10:43:40;47.60;1.00
774;DHT22;370;48.810;9.150;2022-07-21T10:46:35;48.90;1.00
774;DHT22;370;48.810;9.150;2022-07-21T10:49:04;47.20;1.00
774;DHT22;370;48.810;9.150;2022-07-21T10:51:34;46.10;1.00
774;DHT22;370;48.810;9.150;2022-07-21T10:54:22;44.30;1.00
774;DHT22;370;48.810;9.150;2022-07-21T10:57:25;42.60;1.00
774;DHT22;370;48.810;9.150;2022-07-21T11:00:26;41.00;1.00
774;DHT22;370;48.810;9.150;2022-07-21T11:02:56;38.90;1.00
774;DHT22;370;48.810;9.150;2022-07-21T11:05:24;37.80;1.00
774;DHT22;370;48.810;9.150;2022-07-21T11:08:15;36.90;1.00
774;DHT22;370;48.810;9.150;2022-07-21T11:10:44;36.00;1.00
774;DHT22;370;48.810;9.150;2022-07-21T11:13:12;36.10;1.00
774;DHT22;370;48.810;9.150;2022-07-21T11:15:47;36.20;1.00
774;DHT22;370;48.810;9.150;2022-07-21T11:18:18;35.10;1.00
774;DHT22;370;48.810;9.150;2022-07-21T11:21:05;34.70;1.00
774;DHT22;370;48.810;9.150;2022-07-21T11:23:38;34.20;1.00
774;DHT22;370;48.810;9.150;2022-07-21T11:26:05;33.70;1.00
774;DHT22;370;48.810;9.150;2022-07-21T11:28:32;33.40;1.00
774;DHT22;370;48.810;9.150;2022-07-21T11:31:10;33.30;1.00
774;DHT22;370;48.810;9.150;2022-07-21T11:33:38;33.30;1.00
774;DHT22;370;48.810;9.150;2022-07-21T11:36:06;34.90;1.00
774;DHT22;370;48.810;9.150;2022-07-21T11:38:33;35.60;1.00
774;DHT22;370;48.810;9.150;2022-07-21T11:41:15;35.60;1.00
774;DHT22;370;48.810;9.150;2022-07-21T11:43:45;35.10;1.00
774;DHT22;370;48.810;9.150;2022-07-21T11:46:13;37.30;1.00
774;DHT22;370;48.810;9.150;2022-07-21T11:48:40;41.20;1.00
774;DHT22;370;48.810;9.150;2022-07-21T11:51:07;42.20;1.00
774;DHT22;370;48.810;9.150;2022-07-21T11:53:34;43.20;1.00
774;DHT22;370;48.810;9.150;2022-07-21T11:56:12;44.00;1.00
774;DHT22;370;48.810;9.150;2022-07-21T11:58:41;41.10;1.00
774;DHT22;370;48.810;9.150;2022-07-21T12:01:09;40.70;1.00
774;DHT22;370;48.810;9.150;2022-07-21T12:03:46;39.90;1.00
774;DHT22;370;48.810;9.150;2022-07-21T12:06:13;39.10;1.00
774;DHT22;370;48.810;9.150;2022-07-21T12:08:42;39.40;1.00
774;DHT22;370;48.810;9.150;2022-07-21T12:11:10;40.00;1.00
774;DHT22;370;48.810;9.150;2022-07-21T12:13:56;40.20;1.00
774;DHT22;370;48.810;9.150;2022-07-21T12:16:24;39.50;1.00
774;DHT22;370;48.810;9.150;2022-07-21T12:19:09;38.00;1.00
774;DHT22;370;48.810;9.150;2022-07-21T12:21:44;36.50;1.00
774;DHT22;370;48.810;9.150;2022-07-21T12:24:10;35.40;1.00
774;DHT22;370;48.810;9.150;2022-07-21T12:26:37;35.90;1.00
774;DHT22;370;48.810;9.150;2022-07-21T12:29:05;35.80;1.00
774;DHT22;370;48.810;9.150;2022-07-21T12:31:34;35.60;1.00
774;DHT22;370;48.810;9.150;2022-07-21T12:34:11;35.00;1.00
774;DHT22;370;48.810;9.150;2022-07-21T12:36:40;34.50;1.00
774;DHT22;370;48.810;9.150;2022-07-21T12:39:18;34.40;1.00
774;DHT22;370;48.810;9.150;2022-07-21T12:42:04;36.20;1.00
774;DHT22;370;48.810;9.150;2022-07-21T12:44:33;39.10;1.00
774;DHT22;370;48.810;9.150;2022-07-21T12:47:13;39.70;1.00
774;DHT22;370;48.810;9.150;2022-07-21T12:49:57;40.30;1.00
774;DHT22;370;48.810;9.150;2022-07-21T12:52:24;42.20;1.00
774;DHT22;370;48.810;9.150;2022-07-21T12:54:52;43.30;1.00
774;DHT22;370;48.810;9.150;2022-07-21T12:57:19;43.90;1.00
774;DHT22;370;48.810;9.150;2022-07-21T12:59:47;43.20;1.00
774;DHT22;370;48.810;9.150;2022-07-21T13:02:14;44.00;1.00
774;DHT22;370;48.810;9.150;2022-07-21T13:04:40;43.40;1.00
774;DHT22;370;48.810;9.150;2022-07-21T13:07:07;41.70;1.00
774;DHT22;370;48.810;9.150;2022-07-21T13:09:34;39.30;1.00
774;DHT22;370;48.810;9.150;2022-07-21T13:12:01;36.60;1.00
774;DHT22;370;48.810;9.150;2022-07-21T13:14:28;35.50;1.00
774;DHT22;370;48.810;9.150;2022-07-21T13:16:56;36.30;1.00
774;DHT22;370;48.810;9.150;2022-07-21T13:19:23;36.70;1.00
774;DHT22;370;48.810;9.150;2022-07-21T13:21:50;36.70;1.00
774;DHT22;370;48.810;9.150;2022-07-21T13:24:18;36.10;1.00
774;DHT22;370;48.810;9.150;2022-07-21T13:26:45;35.70;1.00
774;DHT22;370;48.810;9.150;2022-07-21T13:32:36;34.40;1.00
774;DHT22;370;48.810;9.150;2022-07-21T13:35:03;35.90;1.00
774;DHT22;370;48.810;9.150;2022-07-21T13:37:30;37.20;1.00
774;DHT22;370;48.810;9.150;2022-07-21T13:39:57;37.30;1.00
774;DHT22;370;48.810;9.150;2022-07-21T13:42:24;37.20;1.00
774;DHT22;370;48.810;9.150;2022-07-21T13:44:51;36.50;1.00
774;DHT22;370;48.810;9.150;2022-07-21T13:47:18;35.60;1.00
774;DHT22;370;48.810;9.150;2022-07-21T13:49:46;35.90;1.00
774;DHT22;370;48.810;9.150;2022-07-21T13:52:13;36.60;1.00
774;DHT22;370;48.810;9.150;2022-07-21T13:54:40;37.10;1.00
774;DHT22;370;48.810;9.150;2022-07-21T13:57:07;36.90;1.00
774;DHT22;370;48.810;9.150;2022-07-21T13:59:34;37.20;1.00
774;DHT22;370;48.810;9.150;2022-07-21T14:02:00;37.70;1.00
774;DHT22;370;48.810;9.150;2022-07-21T14:04:27;37.80;1.00
774;DHT22;370;48.810;9.150;2022-07-21T14:06:55;37.80;1.00
774;DHT22;370;48.810;9.150;2022-07-21T14:09:22;37.90;1.00
774;DHT22;370;48.810;9.150;2022-07-21T14:11:49;38.20;1.00
774;DHT22;370;48.810;9.150;2022-07-21T14:14:16;38.30;1.00
774;DHT22;370;48.810;9.150;2022-07-21T14:16:47;37.90;1.00
774;DHT22;370;48.810;9.150;2022-07-21T14:19:14;37.10;1.00
774;DHT22;370;48.810;9.150;2022-07-21T14:21:41;36.40;1.00
774;DHT22;370;48.810;9.150;2022-07-21T14:24:09;35.60;1.00
774;DHT22;370;48.810;9.150;2022-07-21T14:26:53;34.70;1.00
774;DHT22;370;48.810;9.150;2022-07-21T14:29:20;33.90;1.00
774;DHT22;370;48.810;9.150;2022-07-21T14:31:47;33.40;1.00
774;DHT22;370;48.810;9.150;2022-07-21T14:34:14;32.90;1.00
774;DHT22;370;48.810;9.150;2022-07-21T14:36:41;32.40;1.00
774;DHT22;370;48.810;9.150;2022-07-21T14:39:10;31.80;1.00
774;DHT22;370;48.810;9.150;2022-07-21T14:41:36;31.80;1.00
774;DHT22;370;48.810;9.150;2022-07-21T14:44:03;32.00;1.00
774;DHT22;370;48.810;9.150;2022-07-21T14:46:30;32.70;1.00
774;DHT22;370;48.810;9.150;2022-07-21T14:48:57;33.30;1.00
774;DHT22;370;48.810;9.150;2022-07-21T14:51:24;33.40;1.00
774;DHT22;370;48.810;9.150;2022-07-21T14:53:50;33.50;1.00
774;DHT22;370;48.810;9.150;2022-07-21T14:56:18;33.50;1.00
774;DHT22;370;48.810;9.150;2022-07-21T14:58:45;33.40;1.00
774;DHT22;370;48.810;9.150;2022-07-21T15:01:12;32.90;1.00
774;DHT22;370;48.810;9.150;2022-07-21T15:03:39;32.30;1.00
774;DHT22;370;48.810;9.150;2022-07-21T15:06:06;31.70;1.00
774;DHT22;370;48.810;9.150;2022-07-21T15:08:32;31.40;1.00
774;DHT22;370;48.810;9.150;2022-07-21T15:10:59;31.40;1.00
774;DHT22;370;48.810;9.150;2022-07-21T15:13:27;31.40;1.00
774;DHT22;370;48.810;9.150;2022-07-21T15:15:56;31.30;1.00
774;DHT22;370;48.810;9.150;2022-07-21T15:18:23;31.20;1.00
774;DHT22;370;48.810;9.150;2022-07-21T15:20:50;31.20;1.00
774;DHT22;370;48.810;9.150;2022-07-21T15:23:16;31.20;1.00
774;DHT22;370;48.810;9.150;2022-07-21T15:25:43;31.10;1.00
774;DHT22;370;48.810;9.150;2022-07-21T15:28:10;30.90;1.00
774;DHT22;370;48.810;9.150;2022-07-21T15:30:38;31.00;1.00
774;DHT22;370;48.810;9.150;2022-07-21T15:33:05;31.30;1.00
774;DHT22;370;48.810;9.150;2022-07-21T15:35:32;31.50;1.00
774;DHT22;370;48.810;9.150;2022-07-21T15:37:59;31.70;1.00
774;DHT22;370;48.810;9.150;2022-07-21T15:40:25;32.00;1.00
774;DHT22;370;48.810;9.150;2022-07-21T15:42:52;32.10;1.00
774;DHT22;370;48.810;9.150;2022-07-21T15:45:19;32.30;1.00
774;DHT22;370;48.810;9.150;2022-07-21T15:47:47;32.10;1.00
774;DHT22;370;48.810;9.150;2022-07-21T15:50:14;32.10;1.00
774;DHT22;370;48.810;9.150;2022-07-21T15:52:40;32.00;1.00
774;DHT22;370;48.810;9.150;2022-07-21T15:55:09;32.00;1.00
774;DHT22;370;48.810;9.150;2022-07-21T15:57:37;32.00;1.00
774;DHT22;370;48.810;9.150;2022-07-21T16:00:05;31.90;1.00
774;DHT22;370;48.810;9.150;2022-07-21T16:02:32;32.00;1.00
774;DHT22;370;48.810;9.150;2022-07-21T16:05:00;32.00;1.00
774;DHT22;370;48.810;9.150;2022-07-21T16:07:27;31.90;1.00
774;DHT22;370;48.810;9.150;2022-07-21T16:09:54;31.70;1.00
774;DHT22;370;48.810;9.150;2022-07-21T16:12:20;31.60;1.00
774;DHT22;370;48.810;9.150;2022-07-21T16:14:47;31.50;1.00
774;DHT22;370;48.810;9.150;2022-07-21T16:17:14;31.30;1.00
774;DHT22;370;48.810;9.150;2022-07-21T16:19:42;31.20;1.00
774;DHT22;370;48.810;9.150;2022-07-21T16:22:10;30.90;1.00
774;DHT22;370;48.810;9.150;2022-07-21T16:24:37;30.80;1.00
774;DHT22;370;48.810;9.150;2022-07-21T16:27:04;30.70;1.00
774;DHT22;370;48.810;9.150;2022-07-21T16:29:32;30.60;1.00
774;DHT22;370;48.810;9.150;2022-07-21T16:31:58;30.60;1.00
774;DHT22;370;48.810;9.150;2022-07-21T16:34:27;30.70;1.00
774;DHT22;370;48.810;9.150;2022-07-21T16:36:54;30.70;1.00
774;DHT22;370;48.810;9.150;2022-07-21T16:39:22;30.60;1.00
774;DHT22;370;48.810;9.150;2022-07-21T16:41:49;30.70;1.00
774;DHT22;370;48.810;9.150;2022-07-21T16:44:15;30.60;1.00
774;DHT22;370;48.810;9.150;2022-07-21T16:46:42;30.70;1.00
774;DHT22;370;48.810;9.150;2022-07-21T16:49:09;30.80;1.00
774;DHT22;370;48.810;9.150;2022-07-21T16:51:36;30.90;1.00
774;DHT22;370;48.810;9.150;2022-07-21T16:54:03;30.80;1.00
774;DHT22;370;48.810;9.150;2022-07-21T16:56:31;30.80;1.00